createdAt,value
2022-12-17T00:00:42.342Z,11.57
2022-12-17T00:03:29.869Z,10.13
2022-12-17T00:06:15.937Z,9.90
2022-12-17T00:09:01.867Z,10.07
2022-12-17T00:11:47.256Z,10.63
2022-12-17T00:14:33.084Z,9.83
2022-12-17T00:17:18.918Z,9.03
2022-12-17T00:20:04.785Z,9.17
2022-12-17T00:22:51.068Z,11.07
2022-12-17T00:25:36.727Z,9.13
2022-12-17T00:28:22.207Z,9.30
2022-12-17T00:31:11.626Z,9.87
2022-12-17T00:33:57.391Z,9.80
2022-12-17T00:36:45.008Z,10.20
2022-12-17T00:39:31.167Z,9.97
2022-12-17T00:42:16.828Z,10.10
2022-12-17T00:45:02.875Z,9.63
2022-12-17T00:47:48.836Z,9.07
2022-12-17T00:50:36.032Z,10.33
2022-12-17T00:53:22.264Z,10.43
2022-12-17T00:56:08.195Z,8.93
2022-12-17T00:58:55.009Z,8.57
2022-12-17T01:01:41.202Z,8.83
2022-12-17T01:04:26.894Z,9.47
2022-12-17T01:07:12.734Z,9.43
2022-12-17T01:09:58.304Z,10.30
2022-12-17T01:12:44.188Z,9.97
2022-12-17T01:15:30.803Z,9.17
2022-12-17T01:18:16.717Z,9.53
2022-12-17T01:21:01.961Z,9.40
2022-12-17T01:23:47.775Z,10.17
2022-12-17T01:26:33.968Z,8.93
2022-12-17T01:29:19.691Z,8.50
2022-12-17T01:32:05.235Z,9.87
2022-12-17T01:34:51.105Z,8.80
2022-12-17T01:37:36.361Z,9.60
2022-12-17T01:40:22.230Z,9.50
2022-12-17T01:43:07.490Z,8.90
2022-12-17T01:46:02.881Z,9.23
2022-12-17T01:48:56.724Z,9.80
2022-12-17T01:51:44.064Z,10.23
2022-12-17T01:54:30.850Z,8.83
2022-12-17T01:57:17.184Z,10.03
2022-12-17T02:00:27.585Z,9.70
2022-12-17T02:03:15.683Z,9.30
2022-12-17T02:06:30.839Z,8.37
2022-12-17T02:09:52.895Z,9.33
2022-12-17T02:13:10.002Z,9.13
2022-12-17T02:16:09.339Z,9.43
2022-12-17T02:19:13.994Z,9.03
2022-12-17T02:22:01.884Z,8.73
2022-12-17T02:25:11.829Z,8.87
2022-12-17T02:27:57.700Z,8.80
2022-12-17T02:30:43.797Z,9.93
2022-12-17T02:33:31.860Z,9.97
2022-12-17T02:36:25.041Z,8.80
2022-12-17T02:39:11.459Z,9.50
2022-12-17T02:42:10.336Z,9.73
2022-12-17T02:44:58.022Z,10.10
2022-12-17T02:47:44.498Z,9.60
2022-12-17T02:50:30.854Z,8.90
2022-12-17T02:53:19.996Z,9.73
2022-12-17T02:56:05.980Z,9.33
2022-12-17T02:58:54.034Z,9.03
2022-12-17T03:01:40.075Z,9.70
2022-12-17T03:04:25.487Z,10.53
2022-12-17T03:07:11.348Z,9.40
2022-12-17T03:09:56.881Z,8.53
2022-12-17T03:12:43.697Z,9.03
2022-12-17T03:15:29.012Z,9.73
2022-12-17T03:18:14.656Z,10.57
2022-12-17T03:20:59.849Z,9.30
2022-12-17T03:23:45.321Z,11.10
2022-12-17T03:26:30.690Z,11.47
2022-12-17T03:29:16.543Z,11.17
2022-12-17T03:32:02.427Z,11.20
2022-12-17T03:34:48.383Z,9.93
2022-12-17T03:37:33.480Z,10.13
2022-12-17T03:40:19.326Z,10.70
2022-12-17T03:43:05.326Z,11.10
2022-12-17T03:45:50.752Z,13.07
2022-12-17T03:48:36.724Z,11.67
2022-12-17T03:51:22.744Z,11.90
2022-12-17T03:54:08.610Z,10.67
2022-12-17T03:56:53.949Z,13.27
2022-12-17T03:59:39.762Z,12.40
2022-12-17T04:02:25.646Z,11.60
2022-12-17T04:05:16.555Z,12.33
2022-12-17T04:08:05.248Z,12.90
2022-12-17T04:10:50.916Z,12.33
2022-12-17T04:13:40.779Z,14.07
2022-12-17T04:16:28.050Z,13.23
2022-12-17T04:19:14.027Z,11.53
2022-12-17T04:21:59.906Z,11.20
2022-12-17T04:24:45.412Z,10.93
2022-12-17T04:27:30.972Z,11.73
2022-12-17T04:30:16.303Z,11.73
2022-12-17T04:33:02.145Z,10.87
2022-12-17T04:35:47.474Z,11.53
2022-12-17T04:38:33.367Z,8.73
2022-12-17T04:41:18.746Z,9.70
2022-12-17T04:44:04.532Z,10.60
2022-12-17T04:46:50.637Z,11.87
2022-12-17T04:49:36.327Z,10.43
2022-12-17T04:52:22.437Z,9.93
2022-12-17T04:55:07.927Z,10.53
2022-12-17T04:57:53.300Z,11.50
2022-12-17T05:00:39.169Z,10.27
2022-12-17T05:03:32.664Z,11.77
2022-12-17T05:06:19.123Z,12.83
2022-12-17T05:09:04.941Z,12.90
2022-12-17T05:11:50.391Z,11.20
2022-12-17T05:14:36.328Z,12.17
2022-12-17T05:17:22.171Z,11.10
2022-12-17T05:20:07.895Z,12.50
2022-12-17T05:22:53.673Z,18.83
2022-12-17T05:25:39.479Z,16.43
2022-12-17T05:28:25.389Z,16.80
2022-12-17T05:31:13.391Z,16.87
2022-12-17T05:33:59.224Z,16.40
2022-12-17T05:36:45.263Z,13.83
2022-12-17T05:39:31.234Z,13.53
2022-12-17T05:42:17.211Z,14.77
2022-12-17T05:45:03.037Z,14.50
2022-12-17T05:47:48.412Z,13.67
2022-12-17T05:50:41.923Z,15.97
2022-12-17T05:53:28.926Z,19.70
2022-12-17T05:56:15.113Z,19.73
2022-12-17T05:59:01.168Z,14.27
2022-12-17T06:01:46.473Z,16.03
2022-12-17T06:04:32.442Z,28.23
2022-12-17T06:07:18.227Z,24.00
2022-12-17T06:10:04.238Z,18.87
2022-12-17T06:12:49.620Z,13.83
2022-12-17T06:15:35.709Z,17.00
2022-12-17T06:18:21.052Z,20.30
2022-12-17T06:21:06.961Z,19.50
2022-12-17T06:23:52.222Z,16.20
2022-12-17T06:26:38.042Z,14.47
2022-12-17T06:29:23.468Z,14.30
2022-12-17T06:32:19.808Z,14.13
2022-12-17T06:35:05.310Z,13.43
2022-12-17T06:37:51.150Z,13.20
2022-12-17T06:40:36.867Z,15.37
2022-12-17T06:43:22.797Z,13.70
2022-12-17T06:46:10.798Z,15.77
2022-12-17T06:48:56.597Z,14.70
2022-12-17T06:51:41.852Z,14.00
2022-12-17T06:54:27.821Z,14.43
2022-12-17T06:57:13.555Z,12.87
2022-12-17T06:59:59.411Z,13.47
2022-12-17T07:02:44.827Z,13.23
2022-12-17T07:05:30.886Z,13.60
2022-12-17T07:08:18.024Z,13.77
2022-12-17T07:11:03.844Z,13.40
2022-12-17T07:13:49.672Z,12.70
2022-12-17T07:16:35.540Z,11.70
2022-12-17T07:19:26.778Z,11.60
2022-12-17T07:22:13.196Z,10.97
2022-12-17T07:24:59.061Z,12.10
2022-12-17T07:27:44.930Z,13.07
2022-12-17T07:30:31.766Z,11.97
2022-12-17T07:33:24.252Z,12.47
2022-12-17T07:36:12.054Z,13.07
2022-12-17T07:38:57.628Z,12.53
2022-12-17T07:41:43.479Z,11.77
2022-12-17T07:44:29.332Z,12.63
2022-12-17T07:47:15.047Z,13.03
2022-12-17T07:50:01.428Z,12.90
2022-12-17T07:52:47.388Z,11.93
2022-12-17T07:55:33.219Z,13.87
2022-12-17T07:58:22.424Z,12.10
2022-12-17T08:01:07.857Z,13.27
2022-12-17T08:03:53.246Z,13.30
2022-12-17T08:06:39.195Z,13.00
2022-12-17T08:09:25.038Z,12.80
2022-12-17T08:12:10.885Z,18.80
2022-12-17T08:14:56.891Z,18.80
2022-12-17T08:17:42.688Z,17.77
2022-12-17T08:20:29.487Z,14.57
2022-12-17T08:23:22.920Z,13.87
2022-12-17T08:26:09.162Z,14.13
2022-12-17T08:28:54.988Z,13.90
2022-12-17T08:31:43.347Z,15.33
2022-12-17T08:34:29.390Z,14.43
2022-12-17T08:37:15.213Z,12.97
2022-12-17T08:40:01.232Z,13.57
2022-12-17T08:42:47.160Z,13.63
2022-12-17T08:45:33.066Z,14.73
2022-12-17T08:48:26.739Z,13.00
2022-12-17T08:51:29.704Z,12.67
2022-12-17T08:57:00.755Z,13.20
2022-12-17T08:59:46.221Z,14.93
2022-12-17T09:02:32.141Z,12.87
2022-12-17T09:05:18.202Z,13.70
2022-12-17T09:08:06.794Z,13.67
2022-12-17T09:10:52.929Z,15.53
2022-12-17T09:13:39.077Z,14.90
2022-12-17T09:16:25.119Z,14.40
2022-12-17T09:19:11.003Z,15.57
2022-12-17T09:21:56.634Z,16.30
2022-12-17T09:24:42.439Z,17.53
2022-12-17T09:27:27.611Z,15.30
2022-12-17T09:30:13.568Z,16.03
2022-12-17T09:32:59.325Z,16.40
2022-12-17T09:35:45.309Z,14.40
2022-12-17T09:38:33.897Z,15.73
2022-12-17T09:41:46.132Z,15.93
2022-12-17T09:44:53.943Z,16.40
2022-12-17T09:48:10.679Z,14.83
2022-12-17T09:50:56.476Z,17.77
2022-12-17T09:53:55.954Z,15.53
2022-12-17T09:56:44.700Z,14.40
2022-12-17T09:59:46.358Z,14.10
2022-12-17T10:02:54.067Z,15.80
2022-12-17T10:05:49.787Z,15.80
2022-12-17T10:08:39.572Z,14.87
2022-12-17T10:11:34.907Z,18.03
2022-12-17T10:14:22.842Z,15.57
2022-12-17T10:17:12.066Z,16.43
2022-12-17T10:20:00.580Z,13.80
2022-12-17T10:22:46.711Z,15.20
2022-12-17T10:25:40.148Z,15.63
2022-12-17T10:28:37.295Z,17.60
2022-12-17T10:31:38.122Z,16.73
2022-12-17T10:34:38.961Z,16.27
2022-12-17T10:37:37.942Z,16.17
2022-12-17T10:40:39.327Z,15.73
2022-12-17T10:43:49.193Z,14.03
2022-12-17T10:46:51.453Z,14.53
2022-12-17T10:49:43.585Z,17.03
2022-12-17T10:52:48.860Z,15.63
2022-12-17T10:55:49.098Z,15.43
2022-12-17T10:58:35.905Z,17.60
2022-12-17T11:01:23.297Z,16.03
2022-12-17T11:04:12.894Z,15.63
2022-12-17T11:07:08.459Z,14.63
2022-12-17T11:10:08.986Z,15.50
2022-12-17T11:13:09.876Z,19.77
2022-12-17T11:16:13.570Z,15.57
2022-12-17T11:19:11.173Z,18.40
2022-12-17T11:22:10.199Z,19.00
2022-12-17T11:25:03.813Z,15.70
2022-12-17T11:28:03.803Z,14.20
2022-12-17T11:30:56.163Z,18.97
2022-12-17T11:34:10.757Z,19.13
2022-12-17T11:37:24.106Z,17.60
2022-12-17T11:40:22.549Z,16.53
2022-12-17T11:43:48.443Z,14.93
2022-12-17T11:46:53.355Z,18.00
2022-12-17T11:50:14.969Z,18.17
2022-12-17T11:53:44.430Z,17.03
2022-12-17T11:56:37.167Z,16.43
2022-12-17T11:59:52.701Z,17.13
2022-12-17T12:03:50.589Z,16.57
2022-12-17T12:07:03.823Z,16.30
2022-12-17T12:13:31.389Z,15.10
2022-12-17T12:16:44.805Z,17.07
2022-12-17T12:20:20.835Z,18.80
2022-12-17T12:23:56.290Z,17.80
2022-12-17T12:27:09.818Z,14.53
2022-12-17T12:30:28.493Z,18.03
2022-12-17T12:33:42.506Z,17.53
2022-12-17T12:36:31.248Z,17.67
2022-12-17T12:39:17.244Z,17.03
2022-12-17T12:42:22.177Z,17.03
2022-12-17T12:45:45.930Z,15.27
2022-12-17T12:49:05.254Z,17.27
2022-12-17T12:51:59.421Z,19.10
2022-12-17T12:55:10.033Z,15.37
2022-12-17T12:58:39.569Z,16.60
2022-12-17T13:01:25.227Z,17.57
2022-12-17T13:04:14.831Z,15.37
2022-12-17T13:06:49.122Z,15.33
2022-12-17T13:09:16.619Z,16.27
2022-12-17T13:11:47.405Z,17.47
2022-12-17T13:14:20.709Z,15.37
2022-12-17T13:16:47.754Z,15.20
2022-12-17T13:19:40.280Z,15.47
2022-12-17T13:22:21.948Z,15.60
2022-12-17T13:25:09.225Z,14.57
2022-12-17T13:27:36.028Z,17.17
2022-12-17T13:30:17.992Z,16.73
2022-12-17T13:33:24.914Z,16.67
2022-12-17T13:36:12.891Z,15.33
2022-12-17T13:39:13.966Z,15.00
2022-12-17T13:41:41.425Z,14.27
2022-12-17T13:44:29.792Z,16.20
2022-12-17T13:46:56.701Z,13.57
2022-12-17T13:49:30.005Z,15.53
2022-12-17T13:52:20.544Z,14.07
2022-12-17T13:54:48.281Z,16.20
2022-12-17T13:57:25.163Z,16.13
2022-12-17T13:59:53.564Z,16.10
2022-12-17T14:02:35.077Z,16.00
2022-12-17T14:05:08.155Z,13.80
2022-12-17T14:07:39.106Z,15.50
2022-12-17T14:10:18.105Z,15.43
2022-12-17T14:12:46.027Z,15.33
2022-12-17T14:15:32.265Z,15.77
2022-12-17T14:17:59.813Z,14.57
2022-12-17T14:20:31.765Z,15.30
2022-12-17T14:23:21.931Z,14.68
2022-12-17T14:25:49.182Z,14.87
2022-12-17T14:28:51.525Z,15.27
2022-12-17T14:31:28.164Z,14.93
2022-12-17T14:34:11.735Z,13.87
2022-12-17T14:36:43.748Z,14.93
2022-12-17T14:39:25.660Z,14.43
2022-12-17T14:42:12.460Z,14.77
2022-12-17T14:44:56.068Z,15.87
2022-12-17T14:47:36.549Z,14.17
2022-12-17T14:50:12.569Z,14.87
2022-12-17T14:52:55.129Z,14.00
2022-12-17T14:55:55.217Z,13.63
2022-12-17T14:58:25.338Z,14.30
2022-12-17T15:01:05.844Z,14.03
2022-12-17T15:03:37.937Z,13.50
2022-12-17T15:06:09.007Z,15.40
2022-12-17T15:08:56.305Z,14.27
2022-12-17T15:11:23.528Z,15.43
2022-12-17T15:13:56.116Z,16.43
2022-12-17T15:16:24.288Z,14.50
2022-12-17T15:18:51.312Z,15.40
2022-12-17T15:21:19.627Z,14.40
2022-12-17T15:23:47.198Z,15.07
2022-12-17T15:26:15.214Z,15.43
2022-12-17T15:28:43.540Z,12.20
2022-12-17T15:31:13.310Z,14.60
2022-12-17T15:33:41.431Z,18.77
2022-12-17T15:36:11.811Z,16.53
2022-12-17T15:38:39.466Z,15.27
2022-12-17T15:41:25.616Z,13.67
2022-12-17T15:43:52.792Z,13.97
2022-12-17T15:46:20.155Z,14.00
2022-12-17T15:48:50.341Z,13.73
2022-12-17T15:51:19.917Z,14.37
2022-12-17T15:53:48.469Z,14.23
2022-12-17T15:56:25.285Z,14.20
2022-12-17T15:58:52.883Z,15.37
2022-12-17T16:01:20.373Z,16.00
2022-12-17T16:03:47.864Z,15.97
2022-12-17T16:06:15.217Z,16.30
2022-12-17T16:08:42.136Z,12.30
2022-12-17T16:11:11.850Z,14.37
2022-12-17T16:13:39.391Z,15.10
2022-12-17T16:16:07.441Z,13.37
2022-12-17T16:18:35.874Z,14.87
2022-12-17T16:21:04.901Z,13.73
2022-12-17T16:23:32.822Z,14.50
2022-12-17T16:26:02.679Z,14.23
2022-12-17T16:28:30.805Z,13.73
2022-12-17T16:31:05.926Z,14.43
2022-12-17T16:33:39.091Z,13.20
2022-12-17T16:36:08.380Z,15.93
2022-12-17T16:38:36.139Z,13.37
2022-12-17T16:41:04.076Z,14.37
2022-12-17T16:43:34.710Z,14.03
2022-12-17T16:46:03.145Z,15.90
2022-12-17T16:48:39.785Z,15.93
2022-12-17T16:51:20.108Z,13.67
2022-12-17T16:53:53.294Z,13.90
2022-12-17T16:56:24.688Z,13.33
2022-12-17T16:58:52.680Z,15.10
2022-12-17T17:01:26.434Z,13.73
2022-12-17T17:03:57.804Z,13.53
2022-12-17T17:06:33.750Z,10.33
2022-12-17T17:09:04.574Z,10.77
2022-12-17T17:11:32.177Z,11.13
2022-12-17T17:13:59.109Z,12.63
2022-12-17T17:16:26.650Z,12.97
2022-12-17T17:18:54.293Z,13.23
2022-12-17T17:21:24.340Z,13.80
2022-12-17T17:23:57.252Z,11.97
2022-12-17T17:26:24.849Z,13.07
2022-12-17T17:28:52.118Z,12.87
2022-12-17T17:31:19.316Z,11.43
2022-12-17T17:33:49.714Z,12.50
2022-12-17T17:36:24.132Z,11.67
2022-12-17T17:38:57.191Z,12.80
2022-12-17T17:41:27.497Z,11.83
2022-12-17T17:44:00.787Z,14.30
2022-12-17T17:46:30.420Z,13.10
2022-12-17T17:48:59.510Z,14.00
2022-12-17T17:52:07.127Z,14.17
2022-12-17T17:54:19.454Z,15.27
2022-12-17T17:56:46.369Z,15.93
2022-12-17T17:59:19.212Z,17.50
2022-12-17T18:01:51.765Z,16.83
2022-12-17T18:04:21.650Z,17.40
2022-12-17T18:07:23.121Z,13.93
2022-12-17T18:09:36.288Z,17.13
2022-12-17T18:12:23.949Z,19.77
2022-12-17T18:15:13.855Z,22.27
2022-12-17T18:17:37.698Z,20.57
2022-12-17T18:20:05.365Z,18.27
2022-12-17T18:22:32.274Z,15.23
2022-12-17T18:24:59.226Z,16.23
2022-12-17T18:27:26.127Z,17.47
2022-12-17T18:29:53.142Z,19.40
2022-12-17T18:32:20.060Z,21.43
2022-12-17T18:34:47.545Z,15.97
2022-12-17T18:37:14.949Z,16.00
2022-12-17T18:39:42.144Z,16.60
2022-12-17T18:42:27.918Z,17.40
2022-12-17T18:44:55.271Z,19.70
2022-12-17T18:47:22.226Z,21.13
2022-12-17T18:49:49.547Z,25.93
2022-12-17T18:52:17.587Z,29.37
2022-12-17T18:54:45.427Z,30.93
2022-12-17T18:57:13.223Z,29.60
2022-12-17T18:59:41.284Z,23.20
2022-12-17T19:02:13.373Z,21.37
2022-12-17T19:04:41.038Z,24.52
2022-12-17T19:07:08.519Z,25.43
2022-12-17T19:09:36.200Z,25.17
2022-12-17T19:12:06.126Z,23.37
2022-12-17T19:14:34.039Z,20.80
2022-12-17T19:17:01.879Z,20.27
2022-12-17T19:19:29.200Z,19.67
2022-12-17T19:21:58.614Z,19.60
2022-12-17T19:24:28.194Z,19.93
2022-12-17T19:26:55.596Z,20.37
2022-12-17T19:29:22.871Z,21.87
2022-12-17T19:31:50.558Z,21.73
2022-12-17T19:34:22.193Z,17.43
2022-12-17T19:36:49.311Z,17.50
2022-12-17T19:39:19.108Z,18.30
2022-12-17T19:41:46.552Z,15.90
2022-12-17T19:44:15.923Z,19.47
2022-12-17T19:46:45.997Z,16.43
2022-12-17T19:49:15.428Z,19.57
2022-12-17T19:51:44.168Z,20.43
2022-12-17T19:54:14.688Z,16.83
2022-12-17T19:56:43.622Z,16.83
2022-12-17T19:59:11.248Z,19.03
2022-12-17T20:01:44.309Z,21.40
2022-12-17T20:04:13.956Z,21.73
2022-12-17T20:06:42.059Z,20.07
2022-12-17T20:09:09.370Z,20.53
2022-12-17T20:11:36.739Z,21.63
2022-12-17T20:14:22.022Z,20.77
2022-12-17T20:16:56.102Z,20.53
2022-12-17T20:19:32.448Z,25.33
2022-12-17T20:22:04.305Z,25.97
2022-12-17T20:24:32.345Z,27.52
2022-12-17T20:27:00.595Z,23.63
2022-12-17T20:29:27.672Z,19.70
2022-12-17T20:31:55.930Z,22.17
2022-12-17T20:34:24.363Z,22.97
2022-12-17T20:36:53.034Z,25.10
2022-12-17T20:39:26.185Z,25.33
2022-12-17T20:41:53.875Z,24.57
2022-12-17T20:44:21.168Z,23.50
2022-12-17T20:46:48.700Z,19.77
2022-12-17T20:49:16.141Z,21.80
2022-12-17T20:51:43.769Z,20.53
2022-12-17T20:54:11.391Z,24.23
2022-12-17T20:56:39.984Z,24.87
2022-12-17T20:59:11.584Z,28.33
2022-12-17T21:01:38.534Z,24.92
2022-12-17T21:04:09.225Z,23.63
2022-12-17T21:06:42.063Z,30.00
2022-12-17T21:09:09.963Z,29.40
2022-12-17T21:11:38.569Z,22.60
2022-12-17T21:14:12.942Z,29.13
2022-12-17T21:16:40.418Z,26.90
2022-12-17T21:19:09.194Z,24.30
2022-12-17T21:21:37.893Z,24.87
2022-12-17T21:24:08.827Z,22.60
2022-12-17T21:26:40.001Z,23.03
2022-12-17T21:29:08.952Z,24.17
2022-12-17T21:31:49.457Z,25.43
2022-12-17T21:34:25.341Z,29.37
2022-12-17T21:36:52.768Z,30.63
2022-12-17T21:39:21.041Z,31.40
2022-12-17T21:42:08.630Z,24.80
2022-12-17T21:44:36.472Z,27.50
2022-12-17T21:47:03.867Z,24.80
2022-12-17T21:49:31.837Z,27.07
2022-12-17T21:52:03.507Z,28.70
2022-12-17T21:54:30.632Z,28.40
2022-12-17T21:57:00.829Z,27.47
2022-12-17T21:59:28.202Z,27.07
2022-12-17T22:01:57.498Z,25.60
2022-12-17T22:04:25.376Z,22.07
2022-12-17T22:06:56.686Z,24.43
2022-12-17T22:09:32.700Z,24.60
2022-12-17T22:12:35.525Z,24.93
2022-12-17T22:15:06.247Z,22.43
2022-12-17T22:17:33.559Z,24.93
2022-12-17T22:20:00.459Z,30.17
2022-12-17T22:22:27.749Z,25.87
2022-12-17T22:24:56.472Z,23.83
2022-12-17T22:27:24.061Z,25.97
2022-12-17T22:30:09.939Z,24.40
2022-12-17T22:32:56.199Z,25.47
2022-12-17T22:37:22.314Z,25.57
2022-12-17T22:41:07.755Z,24.50
2022-12-17T22:44:35.118Z,25.10
2022-12-17T22:44:43.212Z,27.37
2022-12-17T22:46:40.093Z,25.83
2022-12-17T22:49:07.693Z,24.67
2022-12-17T22:51:41.604Z,26.33
2022-12-17T22:54:10.367Z,21.87
2022-12-17T22:56:52.421Z,19.50
2022-12-17T22:59:27.483Z,23.50
2022-12-17T23:01:54.498Z,26.17
2022-12-17T23:04:22.043Z,27.90
2022-12-17T23:06:49.069Z,27.90
2022-12-17T23:09:20.778Z,34.07
2022-12-17T23:11:49.063Z,28.95
2022-12-17T23:14:17.024Z,34.80
2022-12-17T23:16:44.538Z,34.43
2022-12-17T23:19:12.566Z,27.57
2022-12-17T23:21:39.876Z,30.37
2022-12-17T23:24:07.495Z,29.27
2022-12-17T23:26:36.819Z,31.10
2022-12-17T23:29:08.821Z,32.10
2022-12-17T23:31:40.092Z,32.40
2022-12-17T23:34:08.167Z,30.37
2022-12-17T23:36:36.491Z,27.17
2022-12-17T23:39:04.309Z,26.33
2022-12-17T23:41:31.912Z,31.67
2022-12-17T23:43:59.787Z,29.23
2022-12-17T23:46:29.404Z,28.17
2022-12-17T23:48:56.351Z,26.93
2022-12-17T23:51:24.500Z,27.23
2022-12-17T23:53:51.731Z,23.77
2022-12-17T23:56:26.177Z,25.90
2022-12-17T23:58:58.889Z,27.23
